sensor_id;sensor_type;location;lat;lon;timestamp;P1;durP1;ratioP1;P2;durP2;ratioP2
74415;SDS011;62850;42.428;25.618;2024-02-23T00:01:25;17.73;;;9.35;;
74415;SDS011;62850;42.428;25.618;2024-02-23T00:03:51;16.85;;;9.38;;
74415;SDS011;62850;42.428;25.618;2024-02-23T00:06:17;17.20;;;9.50;;
74415;SDS011;62850;42.428;25.618;2024-02-23T00:08:42;17.83;;;8.20;;
74415;SDS011;62850;42.428;25.618;2024-02-23T00:11:08;16.30;;;8.88;;
74415;SDS011;62850;42.428;25.618;2024-02-23T00:13:34;15.75;;;8.68;;
74415;SDS011;62850;42.428;25.618;2024-02-23T00:15:59;16.40;;;8.65;;
74415;SDS011;62850;42.428;25.618;2024-02-23T00:18:25;16.42;;;9.15;;
74415;SDS011;62850;42.428;25.618;2024-02-23T00:20:51;18.77;;;8.25;;
74415;SDS011;62850;42.428;25.618;2024-02-23T00:23:16;16.27;;;8.15;;
74415;SDS011;62850;42.428;25.618;2024-02-23T00:25:41;18.42;;;9.32;;
74415;SDS011;62850;42.428;25.618;2024-02-23T00:28:07;15.75;;;9.13;;
74415;SDS011;62850;42.428;25.618;2024-02-23T00:30:33;16.15;;;8.68;;
74415;SDS011;62850;42.428;25.618;2024-02-23T00:32:58;16.13;;;8.57;;
74415;SDS011;62850;42.428;25.618;2024-02-23T00:35:24;19.45;;;9.32;;
74415;SDS011;62850;42.428;25.618;2024-02-23T00:37:50;16.83;;;8.52;;
74415;SDS011;62850;42.428;25.618;2024-02-23T00:40:15;18.63;;;9.25;;
74415;SDS011;62850;42.428;25.618;2024-02-23T00:42:41;17.48;;;8.55;;
74415;SDS011;62850;42.428;25.618;2024-02-23T00:45:07;19.90;;;9.60;;
74415;SDS011;62850;42.428;25.618;2024-02-23T00:47:32;19.85;;;10.10;;
74415;SDS011;62850;42.428;25.618;2024-02-23T00:50:00;21.13;;;10.18;;
74415;SDS011;62850;42.428;25.618;2024-02-23T00:52:26;22.17;;;9.90;;
74415;SDS011;62850;42.428;25.618;2024-02-23T00:54:52;18.33;;;9.18;;
74415;SDS011;62850;42.428;25.618;2024-02-23T00:57:17;19.35;;;9.75;;
74415;SDS011;62850;42.428;25.618;2024-02-23T00:59:47;19.52;;;9.55;;
74415;SDS011;62850;42.428;25.618;2024-02-23T01:02:12;16.10;;;9.13;;
74415;SDS011;62850;42.428;25.618;2024-02-23T01:04:38;16.10;;;8.38;;
74415;SDS011;62850;42.428;25.618;2024-02-23T01:07:03;15.73;;;8.85;;
74415;SDS011;62850;42.428;25.618;2024-02-23T01:09:29;15.50;;;8.10;;
74415;SDS011;62850;42.428;25.618;2024-02-23T01:11:54;18.77;;;8.10;;
74415;SDS011;62850;42.428;25.618;2024-02-23T01:14:20;17.15;;;9.48;;
74415;SDS011;62850;42.428;25.618;2024-02-23T01:16:46;17.48;;;8.70;;
74415;SDS011;62850;42.428;25.618;2024-02-23T01:19:11;15.50;;;8.57;;
74415;SDS011;62850;42.428;25.618;2024-02-23T01:21:37;22.80;;;10.32;;
74415;SDS011;62850;42.428;25.618;2024-02-23T01:24:03;19.80;;;9.90;;
74415;SDS011;62850;42.428;25.618;2024-02-23T01:26:29;16.58;;;9.55;;
74415;SDS011;62850;42.428;25.618;2024-02-23T01:28:55;16.77;;;9.18;;
74415;SDS011;62850;42.428;25.618;2024-02-23T01:31:20;17.30;;;9.77;;
74415;SDS011;62850;42.428;25.618;2024-02-23T01:33:46;20.80;;;9.50;;
74415;SDS011;62850;42.428;25.618;2024-02-23T01:36:12;16.73;;;8.90;;
74415;SDS011;62850;42.428;25.618;2024-02-23T01:38:37;17.98;;;9.15;;
74415;SDS011;62850;42.428;25.618;2024-02-23T01:41:03;18.48;;;9.38;;
74415;SDS011;62850;42.428;25.618;2024-02-23T01:43:29;15.82;;;8.73;;
74415;SDS011;62850;42.428;25.618;2024-02-23T01:45:56;19.30;;;9.98;;
74415;SDS011;62850;42.428;25.618;2024-02-23T01:48:22;17.17;;;9.00;;
74415;SDS011;62850;42.428;25.618;2024-02-23T01:50:48;17.02;;;9.38;;
74415;SDS011;62850;42.428;25.618;2024-02-23T01:53:13;18.17;;;9.50;;
74415;SDS011;62850;42.428;25.618;2024-02-23T01:55:40;16.67;;;9.65;;
74415;SDS011;62850;42.428;25.618;2024-02-23T01:58:06;14.18;;;8.23;;
74415;SDS011;62850;42.428;25.618;2024-02-23T02:00:32;16.70;;;9.00;;
74415;SDS011;62850;42.428;25.618;2024-02-23T02:03:00;19.45;;;10.30;;
74415;SDS011;62850;42.428;25.618;2024-02-23T02:05:25;15.02;;;9.20;;
74415;SDS011;62850;42.428;25.618;2024-02-23T02:07:51;16.65;;;8.68;;
74415;SDS011;62850;42.428;25.618;2024-02-23T02:10:23;16.88;;;8.98;;
74415;SDS011;62850;42.428;25.618;2024-02-23T02:12:50;15.85;;;8.93;;
74415;SDS011;62850;42.428;25.618;2024-02-23T02:15:15;16.05;;;8.63;;
74415;SDS011;62850;42.428;25.618;2024-02-23T02:17:41;20.30;;;9.88;;
74415;SDS011;62850;42.428;25.618;2024-02-23T02:20:07;19.58;;;8.77;;
74415;SDS011;62850;42.428;25.618;2024-02-23T02:22:36;16.10;;;8.57;;
74415;SDS011;62850;42.428;25.618;2024-02-23T02:25:02;17.70;;;8.82;;
74415;SDS011;62850;42.428;25.618;2024-02-23T02:27:28;17.30;;;8.25;;
74415;SDS011;62850;42.428;25.618;2024-02-23T02:29:53;15.55;;;8.63;;
74415;SDS011;62850;42.428;25.618;2024-02-23T02:32:19;18.55;;;9.48;;
74415;SDS011;62850;42.428;25.618;2024-02-23T02:34:45;16.00;;;8.73;;
74415;SDS011;62850;42.428;25.618;2024-02-23T02:37:10;19.20;;;9.13;;
74415;SDS011;62850;42.428;25.618;2024-02-23T02:39:36;19.23;;;9.52;;
74415;SDS011;62850;42.428;25.618;2024-02-23T02:42:01;18.00;;;9.25;;
74415;SDS011;62850;42.428;25.618;2024-02-23T02:44:27;18.00;;;9.25;;
74415;SDS011;62850;42.428;25.618;2024-02-23T02:46:56;17.67;;;9.40;;
74415;SDS011;62850;42.428;25.618;2024-02-23T02:49:22;16.88;;;9.45;;
74415;SDS011;62850;42.428;25.618;2024-02-23T02:51:47;16.58;;;9.18;;
74415;SDS011;62850;42.428;25.618;2024-02-23T02:54:13;18.77;;;9.63;;
74415;SDS011;62850;42.428;25.618;2024-02-23T02:56:42;20.88;;;9.57;;
74415;SDS011;62850;42.428;25.618;2024-02-23T02:59:08;18.23;;;9.98;;
74415;SDS011;62850;42.428;25.618;2024-02-23T03:01:35;17.73;;;8.98;;
74415;SDS011;62850;42.428;25.618;2024-02-23T03:04:00;19.17;;;9.43;;
74415;SDS011;62850;42.428;25.618;2024-02-23T03:06:26;17.55;;;9.32;;
74415;SDS011;62850;42.428;25.618;2024-02-23T03:08:51;16.08;;;9.50;;
74415;SDS011;62850;42.428;25.618;2024-02-23T03:11:17;18.48;;;9.30;;
74415;SDS011;62850;42.428;25.618;2024-02-23T03:13:43;15.45;;;9.02;;
74415;SDS011;62850;42.428;25.618;2024-02-23T03:16:18;20.38;;;9.48;;
74415;SDS011;62850;42.428;25.618;2024-02-23T03:18:46;17.40;;;8.73;;
74415;SDS011;62850;42.428;25.618;2024-02-23T03:21:11;16.48;;;8.52;;
74415;SDS011;62850;42.428;25.618;2024-02-23T03:23:39;16.63;;;8.90;;
74415;SDS011;62850;42.428;25.618;2024-02-23T03:26:06;19.40;;;9.27;;
74415;SDS011;62850;42.428;25.618;2024-02-23T03:28:32;19.45;;;9.77;;
74415;SDS011;62850;42.428;25.618;2024-02-23T03:30:59;17.80;;;9.88;;
74415;SDS011;62850;42.428;25.618;2024-02-23T03:33:25;16.73;;;8.80;;
74415;SDS011;62850;42.428;25.618;2024-02-23T03:35:51;16.75;;;9.30;;
74415;SDS011;62850;42.428;25.618;2024-02-23T03:38:16;16.77;;;9.32;;
74415;SDS011;62850;42.428;25.618;2024-02-23T03:40:42;17.73;;;9.35;;
74415;SDS011;62850;42.428;25.618;2024-02-23T03:43:07;19.15;;;9.80;;
74415;SDS011;62850;42.428;25.618;2024-02-23T03:45:33;22.85;;;10.18;;
74415;SDS011;62850;42.428;25.618;2024-02-23T03:47:59;18.45;;;9.27;;
74415;SDS011;62850;42.428;25.618;2024-02-23T03:50:24;19.73;;;9.77;;
74415;SDS011;62850;42.428;25.618;2024-02-23T03:52:50;16.58;;;9.20;;
74415;SDS011;62850;42.428;25.618;2024-02-23T03:55:15;17.67;;;10.07;;
74415;SDS011;62850;42.428;25.618;2024-02-23T03:57:41;19.60;;;9.32;;
74415;SDS011;62850;42.428;25.618;2024-02-23T04:00:06;18.92;;;9.90;;
74415;SDS011;62850;42.428;25.618;2024-02-23T04:02:34;18.73;;;9.13;;
74415;SDS011;62850;42.428;25.618;2024-02-23T04:04:59;18.67;;;9.50;;
74415;SDS011;62850;42.428;25.618;2024-02-23T04:07:25;18.55;;;9.45;;
74415;SDS011;62850;42.428;25.618;2024-02-23T04:09:51;18.33;;;10.07;;
74415;SDS011;62850;42.428;25.618;2024-02-23T04:12:19;21.00;;;10.75;;
74415;SDS011;62850;42.428;25.618;2024-02-23T04:14:48;19.65;;;9.82;;
74415;SDS011;62850;42.428;25.618;2024-02-23T04:17:14;19.98;;;11.30;;
74415;SDS011;62850;42.428;25.618;2024-02-23T04:19:40;18.02;;;9.55;;
74415;SDS011;62850;42.428;25.618;2024-02-23T04:22:06;18.42;;;10.02;;
74415;SDS011;62850;42.428;25.618;2024-02-23T04:24:38;18.75;;;9.82;;
74415;SDS011;62850;42.428;25.618;2024-02-23T04:27:05;18.05;;;9.05;;
74415;SDS011;62850;42.428;25.618;2024-02-23T04:29:31;18.27;;;9.60;;
74415;SDS011;62850;42.428;25.618;2024-02-23T04:31:57;23.05;;;11.25;;
74415;SDS011;62850;42.428;25.618;2024-02-23T04:34:23;19.95;;;10.13;;
74415;SDS011;62850;42.428;25.618;2024-02-23T04:36:48;21.52;;;10.40;;
74415;SDS011;62850;42.428;25.618;2024-02-23T04:39:14;20.25;;;9.95;;
74415;SDS011;62850;42.428;25.618;2024-02-23T04:41:40;20.13;;;9.80;;
74415;SDS011;62850;42.428;25.618;2024-02-23T04:44:05;18.95;;;9.88;;
74415;SDS011;62850;42.428;25.618;2024-02-23T04:46:31;21.58;;;10.65;;
74415;SDS011;62850;42.428;25.618;2024-02-23T04:48:57;20.90;;;9.55;;
74415;SDS011;62850;42.428;25.618;2024-02-23T04:51:22;17.83;;;9.77;;
74415;SDS011;62850;42.428;25.618;2024-02-23T04:53:48;19.52;;;10.15;;
74415;SDS011;62850;42.428;25.618;2024-02-23T04:56:14;16.95;;;9.23;;
74415;SDS011;62850;42.428;25.618;2024-02-23T04:58:40;19.80;;;10.07;;
74415;SDS011;62850;42.428;25.618;2024-02-23T05:01:07;22.55;;;9.80;;
74415;SDS011;62850;42.428;25.618;2024-02-23T05:03:33;22.33;;;10.00;;
74415;SDS011;62850;42.428;25.618;2024-02-23T05:05:59;18.08;;;9.25;;
74415;SDS011;62850;42.428;25.618;2024-02-23T05:08:25;18.98;;;9.38;;
74415;SDS011;62850;42.428;25.618;2024-02-23T05:10:52;20.25;;;9.93;;
74415;SDS011;62850;42.428;25.618;2024-02-23T05:13:18;17.63;;;9.60;;
74415;SDS011;62850;42.428;25.618;2024-02-23T05:15:44;16.40;;;9.27;;
74415;SDS011;62850;42.428;25.618;2024-02-23T05:18:09;18.05;;;10.38;;
74415;SDS011;62850;42.428;25.618;2024-02-23T05:20:35;22.65;;;10.98;;
74415;SDS011;62850;42.428;25.618;2024-02-23T05:23:00;20.67;;;9.23;;
74415;SDS011;62850;42.428;25.618;2024-02-23T05:25:26;18.77;;;9.73;;
74415;SDS011;62850;42.428;25.618;2024-02-23T05:27:52;20.58;;;9.40;;
74415;SDS011;62850;42.428;25.618;2024-02-23T05:30:17;18.23;;;9.77;;
74415;SDS011;62850;42.428;25.618;2024-02-23T05:32:43;22.10;;;10.30;;
74415;SDS011;62850;42.428;25.618;2024-02-23T05:35:09;17.02;;;9.32;;
74415;SDS011;62850;42.428;25.618;2024-02-23T05:37:35;22.48;;;10.85;;
74415;SDS011;62850;42.428;25.618;2024-02-23T05:40:01;20.42;;;9.32;;
74415;SDS011;62850;42.428;25.618;2024-02-23T05:42:31;19.65;;;10.35;;
74415;SDS011;62850;42.428;25.618;2024-02-23T05:44:57;19.85;;;10.70;;
74415;SDS011;62850;42.428;25.618;2024-02-23T05:47:23;22.38;;;10.55;;
74415;SDS011;62850;42.428;25.618;2024-02-23T05:49:49;24.25;;;11.15;;
74415;SDS011;62850;42.428;25.618;2024-02-23T05:52:15;25.35;;;10.88;;
74415;SDS011;62850;42.428;25.618;2024-02-23T05:54:41;22.88;;;10.93;;
74415;SDS011;62850;42.428;25.618;2024-02-23T05:57:06;25.67;;;11.43;;
74415;SDS011;62850;42.428;25.618;2024-02-23T05:59:33;22.55;;;12.00;;
74415;SDS011;62850;42.428;25.618;2024-02-23T06:01:59;22.25;;;11.10;;
74415;SDS011;62850;42.428;25.618;2024-02-23T06:04:24;20.50;;;11.82;;
74415;SDS011;62850;42.428;25.618;2024-02-23T06:06:50;23.05;;;12.32;;
74415;SDS011;62850;42.428;25.618;2024-02-23T06:09:16;23.88;;;12.20;;
74415;SDS011;62850;42.428;25.618;2024-02-23T06:11:41;26.77;;;12.05;;
74415;SDS011;62850;42.428;25.618;2024-02-23T06:14:07;25.77;;;12.65;;
74415;SDS011;62850;42.428;25.618;2024-02-23T06:16:33;28.17;;;13.30;;
74415;SDS011;62850;42.428;25.618;2024-02-23T06:18:59;24.77;;;14.48;;
74415;SDS011;62850;42.428;25.618;2024-02-23T06:21:24;22.30;;;13.68;;
74415;SDS011;62850;42.428;25.618;2024-02-23T06:23:50;25.00;;;12.32;;
74415;SDS011;62850;42.428;25.618;2024-02-23T06:26:15;25.60;;;13.38;;
74415;SDS011;62850;42.428;25.618;2024-02-23T06:28:41;25.85;;;13.50;;
74415;SDS011;62850;42.428;25.618;2024-02-23T06:31:07;20.48;;;11.55;;
74415;SDS011;62850;42.428;25.618;2024-02-23T06:33:32;23.92;;;12.57;;
74415;SDS011;62850;42.428;25.618;2024-02-23T06:35:58;25.42;;;12.80;;
74415;SDS011;62850;42.428;25.618;2024-02-23T06:38:24;24.58;;;13.63;;
74415;SDS011;62850;42.428;25.618;2024-02-23T06:40:50;23.08;;;11.07;;
74415;SDS011;62850;42.428;25.618;2024-02-23T06:43:16;21.67;;;11.50;;
74415;SDS011;62850;42.428;25.618;2024-02-23T06:45:42;21.27;;;10.25;;
74415;SDS011;62850;42.428;25.618;2024-02-23T06:48:08;24.65;;;11.65;;
74415;SDS011;62850;42.428;25.618;2024-02-23T06:50:35;19.63;;;10.48;;
74415;SDS011;62850;42.428;25.618;2024-02-23T06:53:00;20.95;;;10.57;;
74415;SDS011;62850;42.428;25.618;2024-02-23T06:55:27;19.05;;;10.88;;
74415;SDS011;62850;42.428;25.618;2024-02-23T06:57:53;19.02;;;10.20;;
74415;SDS011;62850;42.428;25.618;2024-02-23T07:00:20;21.23;;;11.02;;
74415;SDS011;62850;42.428;25.618;2024-02-23T07:02:46;19.42;;;10.57;;
74415;SDS011;62850;42.428;25.618;2024-02-23T07:05:12;21.42;;;11.52;;
74415;SDS011;62850;42.428;25.618;2024-02-23T07:07:39;20.40;;;9.98;;
74415;SDS011;62850;42.428;25.618;2024-02-23T07:10:05;23.88;;;11.30;;
74415;SDS011;62850;42.428;25.618;2024-02-23T07:12:32;21.10;;;11.27;;
74415;SDS011;62850;42.428;25.618;2024-02-23T07:14:57;20.23;;;10.55;;
74415;SDS011;62850;42.428;25.618;2024-02-23T07:17:23;23.77;;;10.82;;
74415;SDS011;62850;42.428;25.618;2024-02-23T07:19:49;19.85;;;10.98;;
74415;SDS011;62850;42.428;25.618;2024-02-23T07:22:15;22.00;;;10.15;;
74415;SDS011;62850;42.428;25.618;2024-02-23T07:24:43;17.70;;;9.95;;
74415;SDS011;62850;42.428;25.618;2024-02-23T07:27:09;20.27;;;10.82;;
74415;SDS011;62850;42.428;25.618;2024-02-23T07:29:35;20.23;;;10.98;;
74415;SDS011;62850;42.428;25.618;2024-02-23T07:32:01;22.88;;;10.85;;
74415;SDS011;62850;42.428;25.618;2024-02-23T07:34:27;21.40;;;10.65;;
74415;SDS011;62850;42.428;25.618;2024-02-23T07:36:52;21.05;;;10.45;;
74415;SDS011;62850;42.428;25.618;2024-02-23T07:39:19;20.83;;;11.20;;
74415;SDS011;62850;42.428;25.618;2024-02-23T07:41:45;22.67;;;12.13;;
74415;SDS011;62850;42.428;25.618;2024-02-23T07:44:11;23.13;;;12.45;;
74415;SDS011;62850;42.428;25.618;2024-02-23T07:46:37;29.48;;;14.40;;
74415;SDS011;62850;42.428;25.618;2024-02-23T07:49:03;33.65;;;17.63;;
74415;SDS011;62850;42.428;25.618;2024-02-23T07:51:29;28.60;;;14.23;;
74415;SDS011;62850;42.428;25.618;2024-02-23T07:53:55;23.23;;;11.68;;
74415;SDS011;62850;42.428;25.618;2024-02-23T07:56:20;29.45;;;12.43;;
74415;SDS011;62850;42.428;25.618;2024-02-23T07:58:46;51.60;;;17.75;;
74415;SDS011;62850;42.428;25.618;2024-02-23T08:01:14;32.53;;;13.93;;
74415;SDS011;62850;42.428;25.618;2024-02-23T08:03:39;38.05;;;14.70;;
74415;SDS011;62850;42.428;25.618;2024-02-23T08:06:05;157.07;;;34.97;;
74415;SDS011;62850;42.428;25.618;2024-02-23T08:08:31;40.33;;;15.40;;
74415;SDS011;62850;42.428;25.618;2024-02-23T08:11:00;157.00;;;35.08;;
74415;SDS011;62850;42.428;25.618;2024-02-23T08:13:28;61.45;;;18.42;;
74415;SDS011;62850;42.428;25.618;2024-02-23T08:15:54;29.67;;;14.40;;
74415;SDS011;62850;42.428;25.618;2024-02-23T08:18:20;26.40;;;13.23;;
74415;SDS011;62850;42.428;25.618;2024-02-23T08:20:47;26.38;;;13.52;;
74415;SDS011;62850;42.428;25.618;2024-02-23T08:23:13;25.88;;;12.85;;
74415;SDS011;62850;42.428;25.618;2024-02-23T08:25:39;23.95;;;12.77;;
74415;SDS011;62850;42.428;25.618;2024-02-23T08:28:05;27.67;;;13.82;;
74415;SDS011;62850;42.428;25.618;2024-02-23T08:30:31;29.67;;;13.38;;
74415;SDS011;62850;42.428;25.618;2024-02-23T08:32:57;26.10;;;14.02;;
74415;SDS011;62850;42.428;25.618;2024-02-23T08:35:23;27.50;;;14.00;;
74415;SDS011;62850;42.428;25.618;2024-02-23T08:37:48;23.63;;;13.13;;
74415;SDS011;62850;42.428;25.618;2024-02-23T08:40:14;26.77;;;12.98;;
74415;SDS011;62850;42.428;25.618;2024-02-23T08:42:40;25.83;;;13.48;;
74415;SDS011;62850;42.428;25.618;2024-02-23T08:45:06;27.63;;;13.90;;
74415;SDS011;62850;42.428;25.618;2024-02-23T08:47:32;26.25;;;13.65;;
74415;SDS011;62850;42.428;25.618;2024-02-23T08:49:59;26.02;;;12.70;;
74415;SDS011;62850;42.428;25.618;2024-02-23T08:52:26;26.90;;;14.00;;
74415;SDS011;62850;42.428;25.618;2024-02-23T08:54:52;25.00;;;12.77;;
74415;SDS011;62850;42.428;25.618;2024-02-23T08:57:17;31.33;;;13.93;;
74415;SDS011;62850;42.428;25.618;2024-02-23T08:59:47;27.08;;;14.48;;
74415;SDS011;62850;42.428;25.618;2024-02-23T09:02:16;28.02;;;13.23;;
74415;SDS011;62850;42.428;25.618;2024-02-23T09:04:41;30.50;;;13.80;;
74415;SDS011;62850;42.428;25.618;2024-02-23T09:07:09;25.02;;;13.23;;
74415;SDS011;62850;42.428;25.618;2024-02-23T09:09:35;26.92;;;13.57;;
74415;SDS011;62850;42.428;25.618;2024-02-23T09:12:01;27.85;;;13.57;;
74415;SDS011;62850;42.428;25.618;2024-02-23T09:14:27;27.63;;;12.75;;
74415;SDS011;62850;42.428;25.618;2024-02-23T09:16:52;23.75;;;13.93;;
74415;SDS011;62850;42.428;25.618;2024-02-23T09:19:18;29.02;;;14.00;;
74415;SDS011;62850;42.428;25.618;2024-02-23T09:21:44;24.63;;;13.88;;
74415;SDS011;62850;42.428;25.618;2024-02-23T09:24:10;23.27;;;12.60;;
74415;SDS011;62850;42.428;25.618;2024-02-23T09:26:36;23.80;;;12.18;;
74415;SDS011;62850;42.428;25.618;2024-02-23T09:29:01;28.13;;;16.00;;
74415;SDS011;62850;42.428;25.618;2024-02-23T09:31:27;25.08;;;14.23;;
74415;SDS011;62850;42.428;25.618;2024-02-23T09:33:56;28.83;;;14.13;;
74415;SDS011;62850;42.428;25.618;2024-02-23T09:36:22;25.08;;;13.00;;
74415;SDS011;62850;42.428;25.618;2024-02-23T09:38:48;22.88;;;12.30;;
74415;SDS011;62850;42.428;25.618;2024-02-23T09:41:22;23.23;;;13.30;;
74415;SDS011;62850;42.428;25.618;2024-02-23T09:43:48;22.88;;;13.60;;
74415;SDS011;62850;42.428;25.618;2024-02-23T09:46:15;21.73;;;12.63;;
74415;SDS011;62850;42.428;25.618;2024-02-23T09:48:45;23.27;;;12.68;;
74415;SDS011;62850;42.428;25.618;2024-02-23T09:51:14;21.88;;;11.80;;
74415;SDS011;62850;42.428;25.618;2024-02-23T09:53:40;22.10;;;11.98;;
74415;SDS011;62850;42.428;25.618;2024-02-23T09:56:06;20.45;;;12.77;;
74415;SDS011;62850;42.428;25.618;2024-02-23T09:58:34;20.98;;;11.88;;
74415;SDS011;62850;42.428;25.618;2024-02-23T10:01:03;20.25;;;10.68;;
74415;SDS011;62850;42.428;25.618;2024-02-23T10:03:30;19.50;;;11.60;;
74415;SDS011;62850;42.428;25.618;2024-02-23T10:05:59;23.25;;;11.40;;
74415;SDS011;62850;42.428;25.618;2024-02-23T10:08:29;21.48;;;10.77;;
74415;SDS011;62850;42.428;25.618;2024-02-23T10:10:54;17.45;;;10.25;;
74415;SDS011;62850;42.428;25.618;2024-02-23T10:13:22;17.98;;;10.95;;
74415;SDS011;62850;42.428;25.618;2024-02-23T10:15:51;16.20;;;10.18;;
74415;SDS011;62850;42.428;25.618;2024-02-23T10:18:17;19.25;;;10.32;;
74415;SDS011;62850;42.428;25.618;2024-02-23T10:20:42;16.85;;;9.48;;
74415;SDS011;62850;42.428;25.618;2024-02-23T10:23:08;16.05;;;9.43;;
74415;SDS011;62850;42.428;25.618;2024-02-23T10:25:35;34.75;;;18.05;;
74415;SDS011;62850;42.428;25.618;2024-02-23T10:28:04;22.98;;;11.63;;
74415;SDS011;62850;42.428;25.618;2024-02-23T10:30:31;19.85;;;11.65;;
74415;SDS011;62850;42.428;25.618;2024-02-23T10:32:57;19.83;;;10.65;;
74415;SDS011;62850;42.428;25.618;2024-02-23T10:35:24;15.75;;;8.82;;
74415;SDS011;62850;42.428;25.618;2024-02-23T10:37:51;20.08;;;9.43;;
74415;SDS011;62850;42.428;25.618;2024-02-23T10:40:19;14.90;;;8.80;;
74415;SDS011;62850;42.428;25.618;2024-02-23T10:42:46;16.25;;;10.07;;
74415;SDS011;62850;42.428;25.618;2024-02-23T10:45:17;15.77;;;9.10;;
74415;SDS011;62850;42.428;25.618;2024-02-23T10:47:44;18.00;;;9.80;;
74415;SDS011;62850;42.428;25.618;2024-02-23T10:50:10;15.40;;;9.20;;
74415;SDS011;62850;42.428;25.618;2024-02-23T10:52:42;16.48;;;9.50;;
74415;SDS011;62850;42.428;25.618;2024-02-23T10:55:08;16.15;;;8.85;;
74415;SDS011;62850;42.428;25.618;2024-02-23T10:57:34;13.93;;;8.05;;
74415;SDS011;62850;42.428;25.618;2024-02-23T11:00:00;13.80;;;8.23;;
74415;SDS011;62850;42.428;25.618;2024-02-23T11:02:27;15.68;;;9.52;;
74415;SDS011;62850;42.428;25.618;2024-02-23T11:04:56;16.17;;;8.73;;
74415;SDS011;62850;42.428;25.618;2024-02-23T11:07:23;13.63;;;8.02;;
74415;SDS011;62850;42.428;25.618;2024-02-23T11:09:53;14.32;;;8.95;;
74415;SDS011;62850;42.428;25.618;2024-02-23T11:12:25;16.13;;;8.98;;
74415;SDS011;62850;42.428;25.618;2024-02-23T11:14:57;15.45;;;8.63;;
74415;SDS011;62850;42.428;25.618;2024-02-23T11:17:26;14.63;;;8.30;;
74415;SDS011;62850;42.428;25.618;2024-02-23T11:19:55;13.23;;;8.50;;
74415;SDS011;62850;42.428;25.618;2024-02-23T11:22:25;12.82;;;8.30;;
74415;SDS011;62850;42.428;25.618;2024-02-23T11:27:24;14.68;;;8.98;;
74415;SDS011;62850;42.428;25.618;2024-02-23T11:30:03;18.10;;;9.52;;
74415;SDS011;62850;42.428;25.618;2024-02-23T11:32:37;16.73;;;9.43;;
74415;SDS011;62850;42.428;25.618;2024-02-23T11:35:06;14.25;;;9.55;;
74415;SDS011;62850;42.428;25.618;2024-02-23T11:37:33;14.88;;;8.02;;
74415;SDS011;62850;42.428;25.618;2024-02-23T11:40:17;14.32;;;7.63;;
74415;SDS011;62850;42.428;25.618;2024-02-23T11:45:09;10.77;;;6.57;;
74415;SDS011;62850;42.428;25.618;2024-02-23T11:47:36;9.57;;;6.00;;
74415;SDS011;62850;42.428;25.618;2024-02-23T11:50:02;11.27;;;6.60;;
74415;SDS011;62850;42.428;25.618;2024-02-23T11:52:28;13.02;;;6.13;;
74415;SDS011;62850;42.428;25.618;2024-02-23T11:54:55;16.92;;;5.75;;
74415;SDS011;62850;42.428;25.618;2024-02-23T11:57:21;9.93;;;5.78;;
74415;SDS011;62850;42.428;25.618;2024-02-23T11:59:47;8.55;;;5.18;;
74415;SDS011;62850;42.428;25.618;2024-02-23T12:02:15;11.05;;;5.88;;
74415;SDS011;62850;42.428;25.618;2024-02-23T12:04:41;9.70;;;5.55;;
74415;SDS011;62850;42.428;25.618;2024-02-23T12:07:06;14.38;;;7.32;;
74415;SDS011;62850;42.428;25.618;2024-02-23T12:09:33;17.08;;;8.52;;
74415;SDS011;62850;42.428;25.618;2024-02-23T12:11:58;9.65;;;6.30;;
74415;SDS011;62850;42.428;25.618;2024-02-23T12:14:24;14.20;;;7.70;;
74415;SDS011;62850;42.428;25.618;2024-02-23T12:16:51;12.68;;;6.22;;
74415;SDS011;62850;42.428;25.618;2024-02-23T12:19:17;10.77;;;6.55;;
74415;SDS011;62850;42.428;25.618;2024-02-23T12:21:46;9.05;;;5.38;;
74415;SDS011;62850;42.428;25.618;2024-02-23T12:24:12;9.50;;;5.63;;
74415;SDS011;62850;42.428;25.618;2024-02-23T12:26:38;8.13;;;4.90;;
74415;SDS011;62850;42.428;25.618;2024-02-23T12:29:04;8.70;;;5.05;;
74415;SDS011;62850;42.428;25.618;2024-02-23T12:31:31;10.50;;;5.90;;
74415;SDS011;62850;42.428;25.618;2024-02-23T12:33:57;8.70;;;5.40;;
74415;SDS011;62850;42.428;25.618;2024-02-23T12:36:23;9.45;;;5.47;;
74415;SDS011;62850;42.428;25.618;2024-02-23T12:38:49;6.00;;;4.07;;
74415;SDS011;62850;42.428;25.618;2024-02-23T12:41:15;8.10;;;4.10;;
74415;SDS011;62850;42.428;25.618;2024-02-23T12:43:40;6.75;;;4.18;;
74415;SDS011;62850;42.428;25.618;2024-02-23T12:46:06;6.28;;;3.30;;
74415;SDS011;62850;42.428;25.618;2024-02-23T12:48:34;7.75;;;3.90;;
74415;SDS011;62850;42.428;25.618;2024-02-23T12:51:00;9.38;;;4.35;;
74415;SDS011;62850;42.428;25.618;2024-02-23T12:56:02;7.88;;;4.03;;
74415;SDS011;62850;42.428;25.618;2024-02-23T12:58:29;7.13;;;3.65;;
74415;SDS011;62850;42.428;25.618;2024-02-23T13:00:57;9.13;;;4.28;;
74415;SDS011;62850;42.428;25.618;2024-02-23T13:03:24;7.85;;;3.95;;
74415;SDS011;62850;42.428;25.618;2024-02-23T13:05:50;7.90;;;4.43;;
74415;SDS011;62850;42.428;25.618;2024-02-23T13:08:16;6.05;;;3.55;;
74415;SDS011;62850;42.428;25.618;2024-02-23T13:10:42;8.55;;;4.10;;
74415;SDS011;62850;42.428;25.618;2024-02-23T13:13:08;6.05;;;4.00;;
74415;SDS011;62850;42.428;25.618;2024-02-23T13:15:34;7.90;;;3.92;;
74415;SDS011;62850;42.428;25.618;2024-02-23T13:18:02;6.95;;;3.85;;
74415;SDS011;62850;42.428;25.618;2024-02-23T13:20:29;8.00;;;3.88;;
74415;SDS011;62850;42.428;25.618;2024-02-23T13:22:54;6.78;;;3.70;;
74415;SDS011;62850;42.428;25.618;2024-02-23T13:25:21;7.15;;;4.82;;
74415;SDS011;62850;42.428;25.618;2024-02-23T13:27:46;9.07;;;4.47;;
74415;SDS011;62850;42.428;25.618;2024-02-23T13:30:12;7.05;;;3.90;;
74415;SDS011;62850;42.428;25.618;2024-02-23T13:32:38;6.00;;;3.65;;
74415;SDS011;62850;42.428;25.618;2024-02-23T13:35:04;7.30;;;4.20;;
74415;SDS011;62850;42.428;25.618;2024-02-23T13:37:31;6.63;;;3.92;;
74415;SDS011;62850;42.428;25.618;2024-02-23T13:39:57;7.93;;;4.38;;
74415;SDS011;62850;42.428;25.618;2024-02-23T13:42:22;7.03;;;4.07;;
74415;SDS011;62850;42.428;25.618;2024-02-23T13:44:48;8.10;;;3.95;;
74415;SDS011;62850;42.428;25.618;2024-02-23T13:47:14;8.00;;;4.35;;
74415;SDS011;62850;42.428;25.618;2024-02-23T13:49:39;7.53;;;3.90;;
74415;SDS011;62850;42.428;25.618;2024-02-23T13:52:05;7.63;;;4.32;;
74415;SDS011;62850;42.428;25.618;2024-02-23T13:54:32;7.40;;;4.30;;
74415;SDS011;62850;42.428;25.618;2024-02-23T13:56:57;9.05;;;4.45;;
74415;SDS011;62850;42.428;25.618;2024-02-23T13:59:23;6.57;;;3.90;;
74415;SDS011;62850;42.428;25.618;2024-02-23T14:01:48;6.80;;;4.13;;
74415;SDS011;62850;42.428;25.618;2024-02-23T14:04:14;8.68;;;4.55;;
74415;SDS011;62850;42.428;25.618;2024-02-23T14:06:39;7.53;;;4.40;;
74415;SDS011;62850;42.428;25.618;2024-02-23T14:09:05;7.78;;;4.20;;
74415;SDS011;62850;42.428;25.618;2024-02-23T14:11:31;8.88;;;4.80;;
74415;SDS011;62850;42.428;25.618;2024-02-23T14:13:57;9.00;;;4.45;;
74415;SDS011;62850;42.428;25.618;2024-02-23T14:16:22;10.98;;;4.88;;
74415;SDS011;62850;42.428;25.618;2024-02-23T14:18:48;7.70;;;4.93;;
74415;SDS011;62850;42.428;25.618;2024-02-23T14:21:14;7.88;;;5.05;;